Belize City, Belize

7:40 AM CST on August 01, 2014 (GMT -0600)
Philip S W Goldson International (MZBZ) Elev 16 ft | 17.54 °N, 88.31 °W | Change Station

Current weather conditions updated 40 minutes ago

Mostly Cloudy
Mostly Cloudy
81 °F
Feels Like 88 °F
N
4
Wind Variable Wind from NW

Today is forecast to be Cooler than yesterday. Thunderstorms developing late tonight.

Today
High -- | Low -- °F
--% Chance of Precip.
Yesterday
High -- | Low -- °F
Precip. -- in
5:31 AM 6:25 PM
Waxing Crescent, 26% visible
Pressure 29.93 in
Visibility 6.2 miles
Clouds Mostly Cloudy 1800 ft
Heat Index 88 °F
Dew Point 79 °F
Humidity 94%
Rainfall 0.00 in
Snow Depth Not available.
UV 1 out of 12
Pollen Not available.
Air Quality Not available.
Flu Activity Not available.
METAR MZBZ 011300Z 31003KT 9999 BKN018 27/26 A2993 Q1013 NOSIG

More Conditions Fewer Conditions

Pressure 29.93 in
Visibility 6.2 miles
Clouds Mostly Cloudy 1800 ft
Heat Index 88 °F
Dew Point 79 °F
Humidity 94%
Rainfall 0.00 in
Snow Depth Not available.
UV 1 out of 12
Pollen Not available.
Air Quality Not available.
Flu Activity Not available.
METAR MZBZ 011300Z 31003KT 9999 BKN018 27/26 A2993 Q1013 NOSIG

More Conditions Fewer Conditions

10-Day Weather Forecast

Almanac

Astronomy

Aug. 01, 2014 Rise Set
Actual Time 5:31 AM CST 6:25 PM CST
Civil Twilight 5:08 AM CST 6:49 PM CST
Nautical Twilight 4:41 AM CST 7:16 PM CST
Astronomical Twilight 4:13 AM CST 7:43 PM CST
Moon 10:02 AM CST 10:07 PM CST
Length of Visible Light 13h 40m
Length of Day
12h 54m
Tomorrow will be 0m 44s shorter.
Waxing Crescent, 26% of the Moon is Illuminated
Today
Waxing Crescent
Aug 3
First Quarter
Aug 10
Full
Aug 17
Last Quarter
Aug 25
New

Yesterday's Extremes

Country Highs Country Lows

Community

WunderPhotos

Upload Photos

1,739,557 photos uploaded!

Nearby

Snow Depth

Not available.

Earthquake Activity

City Distance Mag. Time & Date
No recent earthquake activity has been reported nearby.
Minimum magnitude displayed is 2.5.

Coastal Water Temperatures

Place Temperature
No Stations Reporting

Nearby Weather Stations

Station Location Temp. Heat Index Dew Point Humidity Wind Precip. Elev Updated Type
Caye Caulker Village, Caye Caulker 84.0 °F 96 °F 79 °F 84% ESE  at  5.8 mph 0.00 in / hr 40 ft 7:40 AM CST Rapid Fire

Show More Stations Show Fewer Stations